Time;durP1;ratioP1;P1;durP2;ratioP2;P2;SDS_P1;SDS_P2;PMS_P1;PMS_P2;Temp;Humidity;BMP_temperature;BMP_pressure;BME280_temperature;BME280_humidity;BME280_pressure;Samples;Min_cycle;Max_cycle;Signal;HPM_P1;HPM_P2
2023/02/04 00:00:10;;;;;;;3.83;1.83;;;;;;;;;;5044435;28;20024;-71
2023/02/04 00:02:37;;;;;;;3.83;2.03;;;;;;;;;;5052496;28;20037;-71
2023/02/04 00:05:02;;;;;;;3.88;2.15;;;;;;;;;;5045573;28;20074;-79
2023/02/04 00:07:27;;;;;;;4.15;2.03;;;;;;;;;;5047042;28;20813;-73
2023/02/04 00:09:53;;;;;;;4.22;2.67;;;;;;;;;;5054005;28;20028;-75
2023/02/04 00:12:18;;;;;;;2.38;1.92;;;;;;;;;;5047832;28;20021;-76
2023/02/04 00:14:43;;;;;;;2.30;1.90;;;;;;;;;;5049293;28;20136;-74
2023/02/04 00:17:11;;;;;;;2.97;1.80;;;;;;;;;;5030495;28;20055;-74
2023/02/04 00:19:37;;;;;;;2.92;2.17;;;;;;;;;;5052615;28;20033;-75
2023/02/04 00:22:03;;;;;;;3.22;2.20;;;;;;;;;;5050714;28;20114;-76
2023/02/04 00:24:29;;;;;;;3.78;2.58;;;;;;;;;;5054399;28;20029;-73
2023/02/04 00:26:54;;;;;;;2.58;1.70;;;;;;;;;;5055477;28;20056;-70
2023/02/04 00:29:19;;;;;;;2.95;2.15;;;;;;;;;;5030806;28;20053;-75
2023/02/04 00:31:44;;;;;;;1.97;1.50;;;;;;;;;;5049789;28;20033;-71
2023/02/04 00:34:10;;;;;;;2.93;1.50;;;;;;;;;;5046421;28;20291;-71
2023/02/04 00:36:35;;;;;;;1.97;1.47;;;;;;;;;;5035209;28;20275;-70
2023/02/04 00:39:00;;;;;;;2.10;1.60;;;;;;;;;;5036791;28;20329;-69
2023/02/04 00:41:25;;;;;;;2.70;1.60;;;;;;;;;;5046531;28;20125;-72
2023/02/04 00:43:50;;;;;;;3.42;1.58;;;;;;;;;;5053746;28;20641;-77
2023/02/04 00:46:16;;;;;;;3.50;1.70;;;;;;;;;;5049216;28;20021;-70
2023/02/04 00:48:41;;;;;;;3.10;1.90;;;;;;;;;;5029469;28;20283;-71
2023/02/04 00:51:06;;;;;;;1.90;1.35;;;;;;;;;;5047903;28;20284;-71
2023/02/04 00:53:31;;;;;;;3.00;1.55;;;;;;;;;;5038814;28;20495;-69
2023/02/04 00:55:57;;;;;;;2.75;1.88;;;;;;;;;;5030718;28;20028;-71
2023/02/04 00:58:22;;;;;;;2.90;1.60;;;;;;;;;;5040051;28;20460;-72
2023/02/04 01:00:47;;;;;;;3.07;1.93;;;;;;;;;;5049226;28;20773;-77
2023/02/04 01:03:12;;;;;;;2.15;1.60;;;;;;;;;;5032257;28;20869;-73
2023/02/04 01:05:38;;;;;;;1.65;1.42;;;;;;;;;;5052890;28;20021;-69
2023/02/04 01:08:03;;;;;;;4.27;1.83;;;;;;;;;;5048289;28;20020;-71
2023/02/04 01:10:28;;;;;;;2.25;1.63;;;;;;;;;;5052829;28;20278;-70
2023/02/04 01:12:53;;;;;;;2.13;1.58;;;;;;;;;;5049122;28;20021;-73
2023/02/04 01:15:19;;;;;;;2.42;1.80;;;;;;;;;;5035462;28;20025;-72
2023/02/04 01:17:44;;;;;;;2.47;1.60;;;;;;;;;;5033362;28;20491;-70
2023/02/04 01:20:09;;;;;;;1.93;1.53;;;;;;;;;;5051596;28;20025;-76
2023/02/04 01:22:35;;;;;;;2.55;2.35;;;;;;;;;;5034811;28;20271;-77
2023/02/04 01:25:00;;;;;;;2.92;1.90;;;;;;;;;;5048079;28;20447;-76
2023/02/04 01:27:26;;;;;;;4.18;1.50;;;;;;;;;;5050412;28;20029;-77
2023/02/04 01:29:51;;;;;;;3.50;1.80;;;;;;;;;;5040789;28;20383;-77
2023/02/04 01:32:16;;;;;;;4.05;1.83;;;;;;;;;;5051784;28;20028;-76
2023/02/04 01:34:41;;;;;;;3.70;1.50;;;;;;;;;;5053053;28;20024;-76
2023/02/04 01:37:07;;;;;;;2.10;1.40;;;;;;;;;;5038225;28;20267;-78
2023/02/04 01:39:32;;;;;;;1.95;1.40;;;;;;;;;;5034045;28;20284;-70
2023/02/04 01:41:59;;;;;;;4.13;1.52;;;;;;;;;;5048289;28;20627;-73
2023/02/04 01:44:25;;;;;;;1.23;1.10;;;;;;;;;;5050348;28;20041;-72
2023/02/04 01:46:50;;;;;;;1.80;1.35;;;;;;;;;;5035276;28;20013;-73
2023/02/04 01:49:16;;;;;;;1.48;1.38;;;;;;;;;;5031423;28;20024;-73
2023/02/04 01:51:41;;;;;;;2.28;1.83;;;;;;;;;;5048575;28;20418;-72
2023/02/04 01:54:09;;;;;;;3.58;1.60;;;;;;;;;;5054027;28;20134;-74
2023/02/04 01:56:34;;;;;;;1.85;1.40;;;;;;;;;;5050325;28;20036;-73
2023/02/04 01:58:59;;;;;;;2.17;1.65;;;;;;;;;;5050965;28;20025;-70
2023/02/04 02:01:40;;;;;;;1.73;1.30;;;;;;;;;;5038801;28;20044;-72
2023/02/04 02:04:06;;;;;;;2.90;1.40;;;;;;;;;;5028533;28;20025;-71
2023/02/04 02:06:31;;;;;;;3.05;1.95;;;;;;;;;;5032150;28;20050;-71
2023/02/04 02:08:57;;;;;;;3.70;1.70;;;;;;;;;;5034729;28;20032;-73
2023/02/04 02:11:23;;;;;;;2.92;1.38;;;;;;;;;;5046500;28;20182;-70
2023/02/04 02:13:48;;;;;;;5.40;1.58;;;;;;;;;;5050468;28;20028;-79
2023/02/04 02:16:13;;;;;;;3.08;1.10;;;;;;;;;;5046572;28;20032;-72
2023/02/04 02:18:38;;;;;;;6.70;1.50;;;;;;;;;;5048362;28;20029;-75
2023/02/04 02:21:05;;;;;;;6.28;1.50;;;;;;;;;;5039010;28;20024;-75
2023/02/04 02:23:47;;;;;;;3.85;1.23;;;;;;;;;;5047059;28;20506;-74
2023/02/04 02:26:13;;;;;;;4.57;1.30;;;;;;;;;;5041013;28;20024;-73
2023/02/04 02:28:39;;;;;;;7.07;2.03;;;;;;;;;;5027260;28;20020;-75
2023/02/04 02:31:04;;;;;;;5.75;1.55;;;;;;;;;;5046355;28;20028;-75
2023/02/04 02:33:29;;;;;;;5.57;1.55;;;;;;;;;;5054165;28;20059;-72
2023/02/04 02:35:54;;;;;;;4.47;1.42;;;;;;;;;;5030114;28;20383;-72
2023/02/04 02:38:20;;;;;;;8.73;1.95;;;;;;;;;;5048846;28;20044;-72
2023/02/04 02:40:45;;;;;;;5.63;1.73;;;;;;;;;;5024555;28;20083;-72
2023/02/04 02:43:16;;;;;;;2.97;1.95;;;;;;;;;;5029095;28;20029;-71
2023/02/04 02:45:41;;;;;;;4.63;1.63;;;;;;;;;;5032542;28;20025;-73
2023/02/04 02:48:08;;;;;;;6.18;1.58;;;;;;;;;;5028433;28;20111;-72
2023/02/04 02:50:33;;;;;;;6.00;2.00;;;;;;;;;;5028218;28;20075;-76
2023/02/04 02:52:59;;;;;;;7.63;1.83;;;;;;;;;;5027743;28;20017;-69
2023/02/04 02:55:25;;;;;;;6.90;1.55;;;;;;;;;;5027609;28;20099;-76
2023/02/04 02:57:51;;;;;;;7.47;1.98;;;;;;;;;;5029841;28;20025;-73
2023/02/04 03:00:36;;;;;;;10.52;2.10;;;;;;;;;;5045748;28;20078;-76
2023/02/04 03:03:10;;;;;;;8.57;2.22;;;;;;;;;;5025415;28;20032;-74
2023/02/04 03:05:40;;;;;;;5.60;1.60;;;;;;;;;;5052967;28;20036;-74
2023/02/04 03:08:05;;;;;;;6.22;1.80;;;;;;;;;;5044718;28;20033;-74
2023/02/04 03:10:31;;;;;;;6.85;1.88;;;;;;;;;;5044897;28;20032;-72
2023/02/04 03:12:56;;;;;;;5.00;1.63;;;;;;;;;;5045973;28;20017;-69
2023/02/04 03:15:21;;;;;;;6.72;1.75;;;;;;;;;;5046085;28;20044;-72
2023/02/04 03:17:47;;;;;;;3.17;1.98;;;;;;;;;;5029374;28;20070;-68
2023/02/04 03:20:13;;;;;;;5.35;1.77;;;;;;;;;;5027515;28;20498;-70
2023/02/04 03:22:38;;;;;;;6.43;1.90;;;;;;;;;;5047669;28;20075;-71
2023/02/04 03:25:04;;;;;;;3.05;1.58;;;;;;;;;;5046681;28;20022;-69
2023/02/04 03:27:29;;;;;;;5.32;1.50;;;;;;;;;;5045363;28;20108;-76
2023/02/04 03:29:54;;;;;;;9.17;2.43;;;;;;;;;;5045990;28;20107;-76
2023/02/04 03:32:20;;;;;;;4.82;1.90;;;;;;;;;;5027266;28;20286;-71
2023/02/04 03:34:45;;;;;;;7.80;2.03;;;;;;;;;;5027552;28;20464;-74
2023/02/04 03:37:11;;;;;;;6.03;1.90;;;;;;;;;;5053514;28;20104;-71
2023/02/04 03:39:36;;;;;;;5.00;1.80;;;;;;;;;;5042849;28;20641;-72
2023/02/04 03:42:01;;;;;;;5.50;1.45;;;;;;;;;;5044125;28;20135;-72
2023/02/04 03:44:27;;;;;;;2.20;1.17;;;;;;;;;;5046601;28;20033;-73
2023/02/04 03:46:54;;;;;;;8.25;1.75;;;;;;;;;;5045849;28;20459;-73
2023/02/04 03:49:20;;;;;;;4.95;1.42;;;;;;;;;;5045067;28;20071;-73
2023/02/04 03:51:45;;;;;;;4.55;1.20;;;;;;;;;;5046171;28;20028;-71
2023/02/04 03:54:10;;;;;;;3.53;1.40;;;;;;;;;;5045106;28;20040;-69
2023/02/04 03:56:36;;;;;;;4.05;1.92;;;;;;;;;;5044995;28;20271;-71
2023/02/04 03:59:01;;;;;;;4.20;2.10;;;;;;;;;;5047207;28;20464;-73
2023/02/04 04:01:26;;;;;;;5.30;1.60;;;;;;;;;;5045414;28;20272;-73
2023/02/04 04:03:51;;;;;;;6.03;1.90;;;;;;;;;;5046288;28;20762;-74
2023/02/04 04:06:16;;;;;;;5.20;2.30;;;;;;;;;;5048548;28;20631;-75
2023/02/04 04:08:42;;;;;;;9.50;2.30;;;;;;;;;;5053873;28;20853;-75
2023/02/04 04:11:07;;;;;;;4.72;1.98;;;;;;;;;;5051869;28;20627;-76
2023/02/04 04:13:32;;;;;;;9.87;2.37;;;;;;;;;;5046922;28;20029;-74
2023/02/04 04:15:57;;;;;;;3.57;1.67;;;;;;;;;;5052246;28;20340;-75
2023/02/04 04:18:22;;;;;;;6.35;1.75;;;;;;;;;;5032652;28;20336;-80
2023/02/04 04:20:48;;;;;;;6.80;2.20;;;;;;;;;;5031280;28;20491;-77
2023/02/04 04:23:13;;;;;;;6.97;3.28;;;;;;;;;;5048798;28;21016;-72
2023/02/04 04:25:38;;;;;;;5.57;2.13;;;;;;;;;;5049574;28;20025;-69
2023/02/04 04:28:03;;;;;;;5.47;1.90;;;;;;;;;;5046509;28;20028;-75
2023/02/04 04:30:29;;;;;;;3.47;1.75;;;;;;;;;;5031226;28;20278;-76
2023/02/04 04:32:54;;;;;;;2.73;1.50;;;;;;;;;;5030266;28;20013;-75
2023/02/04 04:35:19;;;;;;;5.47;1.60;;;;;;;;;;5030262;28;20307;-76
2023/02/04 04:37:44;;;;;;;6.33;1.60;;;;;;;;;;5047203;28;20358;-74
2023/02/04 04:40:10;;;;;;;5.17;1.67;;;;;;;;;;5048871;28;20406;-75
2023/02/04 04:42:36;;;;;;;3.85;1.77;;;;;;;;;;5048533;28;20802;-75
2023/02/04 04:45:01;;;;;;;6.30;1.70;;;;;;;;;;5046721;28;20028;-74
2023/02/04 04:47:27;;;;;;;2.08;1.25;;;;;;;;;;5046859;28;20108;-78
2023/02/04 04:49:52;;;;;;;3.20;1.63;;;;;;;;;;5044614;28;20031;-73
2023/02/04 04:52:17;;;;;;;6.00;1.70;;;;;;;;;;5047388;28;20286;-72
2023/02/04 04:54:42;;;;;;;4.60;1.60;;;;;;;;;;5047952;28;20299;-74
2023/02/04 04:57:07;;;;;;;9.13;2.30;;;;;;;;;;5045606;28;20268;-73
2023/02/04 04:59:33;;;;;;;6.05;2.15;;;;;;;;;;5029179;28;20427;-71
2023/02/04 05:01:58;;;;;;;4.33;1.83;;;;;;;;;;5046993;28;20029;-72
2023/02/04 05:04:23;;;;;;;4.75;1.88;;;;;;;;;;5029357;28;20354;-76
2023/02/04 05:06:48;;;;;;;5.40;1.80;;;;;;;;;;5046470;28;20037;-76
2023/02/04 05:09:15;;;;;;;6.97;2.30;;;;;;;;;;5031216;28;20434;-77
2023/02/04 05:11:40;;;;;;;4.50;2.30;;;;;;;;;;5047204;28;20325;-75
2023/02/04 05:14:06;;;;;;;3.78;1.65;;;;;;;;;;5037553;28;20669;-75
2023/02/04 05:16:31;;;;;;;8.68;1.92;;;;;;;;;;5047542;28;20052;-76
2023/02/04 05:18:56;;;;;;;7.10;1.92;;;;;;;;;;5046181;28;20032;-73
2023/02/04 05:21:21;;;;;;;4.37;1.80;;;;;;;;;;5047801;28;20020;-71
2023/02/04 05:23:47;;;;;;;5.47;1.90;;;;;;;;;;5029147;28;20762;-70
2023/02/04 05:26:12;;;;;;;5.73;1.93;;;;;;;;;;5046434;28;20025;-74
2023/02/04 05:28:37;;;;;;;2.55;1.40;;;;;;;;;;5047941;28;20382;-70
2023/02/04 05:31:02;;;;;;;7.13;2.20;;;;;;;;;;5046210;28;20100;-73
2023/02/04 05:33:27;;;;;;;3.97;2.03;;;;;;;;;;5032694;28;20322;-70
2023/02/04 05:35:53;;;;;;;8.63;2.70;;;;;;;;;;5028745;28;20338;-69
2023/02/04 05:38:18;;;;;;;5.70;1.87;;;;;;;;;;5027966;28;20017;-73
2023/02/04 05:40:43;;;;;;;5.07;1.70;;;;;;;;;;5023219;28;20292;-78
2023/02/04 05:43:08;;;;;;;5.83;1.77;;;;;;;;;;5045979;28;20355;-77
2023/02/04 05:45:34;;;;;;;6.70;2.33;;;;;;;;;;5054206;28;20292;-75
2023/02/04 05:47:59;;;;;;;7.93;2.47;;;;;;;;;;5044516;28;20059;-77
2023/02/04 05:50:24;;;;;;;5.83;2.10;;;;;;;;;;5043006;28;20796;-77
2023/02/04 05:52:49;;;;;;;8.23;2.10;;;;;;;;;;5044179;28;20279;-76
2023/02/04 05:55:15;;;;;;;5.68;2.20;;;;;;;;;;5044718;28;20300;-71
2023/02/04 05:57:40;;;;;;;6.57;2.10;;;;;;;;;;5027354;28;20484;-77
2023/02/04 06:00:06;;;;;;;6.05;2.10;;;;;;;;;;5045754;28;21104;-73
2023/02/04 06:02:31;;;;;;;5.07;2.08;;;;;;;;;;5045332;28;20566;-73
2023/02/04 06:04:56;;;;;;;6.10;3.00;;;;;;;;;;5027229;28;20031;-73
2023/02/04 06:07:22;;;;;;;10.82;3.55;;;;;;;;;;5026048;28;20291;-74
2023/02/04 06:09:47;;;;;;;6.93;3.37;;;;;;;;;;5026015;28;20031;-73
2023/02/04 06:12:12;;;;;;;9.00;3.20;;;;;;;;;;5043964;28;20294;-73
2023/02/04 06:14:37;;;;;;;6.88;2.60;;;;;;;;;;5045924;28;20527;-70
2023/02/04 06:17:03;;;;;;;11.40;3.20;;;;;;;;;;5034503;28;20871;-70
2023/02/04 06:19:28;;;;;;;10.40;3.63;;;;;;;;;;5047326;28;20918;-71
2023/02/04 06:21:53;;;;;;;14.98;3.38;;;;;;;;;;5029735;28;20025;-69
2023/02/04 06:24:18;;;;;;;8.97;4.97;;;;;;;;;;5046313;28;20013;-70
2023/02/04 06:26:44;;;;;;;7.67;3.50;;;;;;;;;;5042653;28;20689;-69
2023/02/04 06:29:09;;;;;;;9.03;2.87;;;;;;;;;;5028945;28;20788;-70
2023/02/04 06:31:37;;;;;;;10.43;3.38;;;;;;;;;;5044679;28;20286;-76
2023/02/04 06:34:02;;;;;;;12.02;4.75;;;;;;;;;;5028370;28;20089;-73
2023/02/04 06:36:27;;;;;;;6.13;3.03;;;;;;;;;;5044439;28;20397;-78
2023/02/04 06:38:53;;;;;;;12.63;4.20;;;;;;;;;;5025453;28;20028;-77
2023/02/04 06:41:18;;;;;;;11.02;3.40;;;;;;;;;;5027348;28;20291;-76
2023/02/04 06:43:43;;;;;;;8.47;3.10;;;;;;;;;;5043821;28;20365;-77
2023/02/04 06:46:08;;;;;;;10.82;3.90;;;;;;;;;;5043107;28;20778;-76
2023/02/04 06:48:34;;;;;;;11.20;4.23;;;;;;;;;;5033731;28;20088;-76
2023/02/04 06:50:59;;;;;;;12.50;4.38;;;;;;;;;;5048008;28;20283;-76
2023/02/04 06:53:24;;;;;;;6.97;3.30;;;;;;;;;;5023458;28;20044;-69
2023/02/04 06:55:51;;;;;;;12.40;3.75;;;;;;;;;;5045760;28;20288;-71
2023/02/04 06:58:16;;;;;;;13.93;4.80;;;;;;;;;;5028932;28;20016;-70
2023/02/04 07:00:42;;;;;;;16.17;4.23;;;;;;;;;;5044360;28;20090;-69
2023/02/04 07:03:07;;;;;;;14.30;3.83;;;;;;;;;;5025618;28;20754;-72
2023/02/04 07:05:32;;;;;;;11.75;5.10;;;;;;;;;;5033158;28;20120;-70
2023/02/04 07:07:57;;;;;;;13.60;3.80;;;;;;;;;;5034781;28;20017;-71
2023/02/04 07:10:23;;;;;;;14.68;4.03;;;;;;;;;;5028858;28;20079;-74
2023/02/04 07:12:48;;;;;;;11.17;4.27;;;;;;;;;;5047934;28;20032;-74
2023/02/04 07:15:13;;;;;;;9.97;3.70;;;;;;;;;;5047699;28;20295;-73
2023/02/04 07:17:38;;;;;;;11.32;4.30;;;;;;;;;;5029050;28;20284;-74
2023/02/04 07:20:04;;;;;;;12.50;4.27;;;;;;;;;;5053684;28;20035;-73
2023/02/04 07:22:29;;;;;;;11.88;4.22;;;;;;;;;;5054291;28;20284;-74
2023/02/04 07:24:54;;;;;;;15.33;4.17;;;;;;;;;;5048417;28;20480;-73
2023/02/04 07:27:19;;;;;;;13.65;3.75;;;;;;;;;;5046552;28;20283;-74
2023/02/04 07:29:44;;;;;;;9.47;4.97;;;;;;;;;;5047237;28;20025;-72
2023/02/04 07:32:10;;;;;;;11.17;4.90;;;;;;;;;;5039884;28;20267;-76
2023/02/04 07:34:35;;;;;;;12.30;4.90;;;;;;;;;;5028554;28;20299;-76
2023/02/04 07:37:00;;;;;;;12.07;4.47;;;;;;;;;;5045332;28;20290;-77
2023/02/04 07:39:26;;;;;;;10.13;3.88;;;;;;;;;;5032975;28;20021;-77
2023/02/04 07:41:51;;;;;;;10.48;4.05;;;;;;;;;;5051460;28;20020;-76
2023/02/04 07:44:16;;;;;;;13.55;4.00;;;;;;;;;;5050984;28;20076;-76
2023/02/04 07:46:42;;;;;;;18.20;4.13;;;;;;;;;;5052052;28;20025;-73
2023/02/04 07:49:07;;;;;;;19.00;4.82;;;;;;;;;;5031003;28;20276;-70
2023/02/04 07:51:32;;;;;;;14.82;4.05;;;;;;;;;;5029560;28;20440;-70
2023/02/04 07:53:58;;;;;;;12.30;5.28;;;;;;;;;;5038452;28;20033;-74
2023/02/04 07:56:23;;;;;;;15.40;3.88;;;;;;;;;;5030601;28;20036;-70
2023/02/04 07:58:48;;;;;;;14.23;4.70;;;;;;;;;;5046826;28;20471;-71
2023/02/04 08:01:13;;;;;;;12.30;4.80;;;;;;;;;;5033395;28;20025;-71
2023/02/04 08:03:38;;;;;;;13.70;5.20;;;;;;;;;;5031225;28;20402;-77
2023/02/04 08:06:04;;;;;;;11.30;4.07;;;;;;;;;;5031481;28;20383;-77
2023/02/04 08:08:29;;;;;;;15.68;4.82;;;;;;;;;;5047665;28;20750;-75
2023/02/04 08:10:54;;;;;;;14.10;3.83;;;;;;;;;;5031059;28;20462;-71
2023/02/04 08:13:20;;;;;;;15.85;5.38;;;;;;;;;;5033732;28;20476;-71
2023/02/04 08:15:45;;;;;;;11.38;4.93;;;;;;;;;;5038751;28;20047;-72
2023/02/04 08:18:10;;;;;;;11.45;3.95;;;;;;;;;;5034064;28;20487;-72
2023/02/04 08:20:35;;;;;;;14.07;4.40;;;;;;;;;;5033416;28;20059;-71
2023/02/04 08:23:01;;;;;;;10.10;4.30;;;;;;;;;;5044760;28;20172;-72
2023/02/04 08:25:27;;;;;;;11.87;5.27;;;;;;;;;;5048101;28;20464;-69
2023/02/04 08:27:53;;;;;;;13.63;3.85;;;;;;;;;;5052883;28;20338;-70
2023/02/04 08:30:18;;;;;;;18.60;4.20;;;;;;;;;;5034860;28;20117;-70
2023/02/04 08:32:43;;;;;;;12.60;5.32;;;;;;;;;;5034820;28;20422;-69
2023/02/04 08:35:08;;;;;;;14.53;3.70;;;;;;;;;;5043748;28;20025;-69
2023/02/04 08:37:34;;;;;;;11.90;4.50;;;;;;;;;;5032416;28;21062;-70
2023/02/04 08:39:59;;;;;;;13.35;5.28;;;;;;;;;;5036983;28;20028;-70
2023/02/04 08:42:24;;;;;;;8.53;3.53;;;;;;;;;;5034801;28;20044;-72
2023/02/04 08:44:49;;;;;;;14.75;4.13;;;;;;;;;;5049892;28;20275;-72
2023/02/04 08:47:15;;;;;;;9.33;3.43;;;;;;;;;;5048623;28;20120;-71
2023/02/04 08:49:40;;;;;;;11.85;3.92;;;;;;;;;;5030189;28;20375;-72
2023/02/04 08:52:06;;;;;;;17.52;5.13;;;;;;;;;;5045038;28;21280;-74
2023/02/04 08:54:32;;;;;;;18.48;4.78;;;;;;;;;;5040065;28;20045;-75
2023/02/04 08:56:57;;;;;;;13.23;3.80;;;;;;;;;;5047782;28;20201;-83
2023/02/04 08:59:24;;;;;;;9.88;4.00;;;;;;;;;;5028966;28;20033;-72
2023/02/04 09:01:51;;;;;;;9.30;3.80;;;;;;;;;;5021184;28;20074;-75
2023/02/04 09:04:20;;;;;;;13.73;4.93;;;;;;;;;;5030490;28;20056;-78
2023/02/04 09:06:47;;;;;;;10.88;5.43;;;;;;;;;;5045244;28;20476;-78
2023/02/04 09:09:12;;;;;;;15.32;4.95;;;;;;;;;;5030119;28;20056;-78
2023/02/04 09:11:38;;;;;;;11.70;3.53;;;;;;;;;;5021315;28;20055;-79
2023/02/04 09:14:03;;;;;;;15.75;4.20;;;;;;;;;;5036352;28;20507;-80
2023/02/04 09:16:28;;;;;;;14.65;4.60;;;;;;;;;;5020989;28;20021;-79
2023/02/04 09:18:53;;;;;;;11.93;5.07;;;;;;;;;;5031739;28;20465;-74
2023/02/04 09:21:19;;;;;;;11.90;4.10;;;;;;;;;;5049574;28;20303;-75
2023/02/04 09:23:45;;;;;;;19.25;5.05;;;;;;;;;;5010136;28;20028;-77
2023/02/04 09:26:11;;;;;;;15.00;5.53;;;;;;;;;;5024889;28;20388;-74
2023/02/04 09:28:36;;;;;;;11.75;4.63;;;;;;;;;;5051058;28;20025;-77
2023/02/04 09:31:02;;;;;;;13.70;4.65;;;;;;;;;;5038724;28;20036;-77
2023/02/04 09:33:27;;;;;;;12.15;4.20;;;;;;;;;;5031931;28;21064;-77
2023/02/04 09:35:52;;;;;;;20.17;5.53;;;;;;;;;;5032732;28;20491;-74
2023/02/04 09:38:17;;;;;;;14.60;4.90;;;;;;;;;;5050793;28;20891;-75
2023/02/04 09:40:52;;;;;;;12.35;3.83;;;;;;;;;;5033206;28;20665;-79
2023/02/04 09:43:23;;;;;;;10.70;4.05;;;;;;;;;;5029948;28;20035;-79
2023/02/04 09:45:49;;;;;;;12.48;3.92;;;;;;;;;;5030694;28;20025;-77
2023/02/04 09:48:14;;;;;;;14.75;4.07;;;;;;;;;;5033762;28;20028;-75
2023/02/04 09:50:40;;;;;;;10.35;3.80;;;;;;;;;;5031396;28;20048;-78
2023/02/04 09:53:05;;;;;;;15.38;4.07;;;;;;;;;;5048548;28;20395;-75
2023/02/04 09:55:36;;;;;;;11.27;4.65;;;;;;;;;;5028545;28;20144;-76
2023/02/04 09:58:02;;;;;;;9.38;3.85;;;;;;;;;;5044718;28;20027;-74
2023/02/04 10:00:29;;;;;;;14.02;5.45;;;;;;;;;;5053446;28;20100;-74
2023/02/04 10:02:56;;;;;;;9.52;4.50;;;;;;;;;;5032544;28;20039;-78
2023/02/04 10:05:26;;;;;;;13.65;3.83;;;;;;;;;;5048105;28;20015;-74
2023/02/04 10:07:51;;;;;;;10.18;3.35;;;;;;;;;;5031826;28;20142;-77
2023/02/04 10:10:17;;;;;;;13.70;3.72;;;;;;;;;;5049424;28;20448;-76
2023/02/04 10:12:43;;;;;;;13.95;4.10;;;;;;;;;;5026545;28;20388;-74
2023/02/04 10:15:12;;;;;;;15.60;4.30;;;;;;;;;;5030985;28;20471;-76
2023/02/04 10:17:38;;;;;;;12.25;4.30;;;;;;;;;;5029986;28;20029;-73
2023/02/04 10:20:03;;;;;;;11.77;3.50;;;;;;;;;;5049025;28;20029;-72
2023/02/04 10:22:28;;;;;;;14.00;3.97;;;;;;;;;;5027206;28;20136;-71
2023/02/04 10:24:54;;;;;;;10.00;3.80;;;;;;;;;;5029236;28;20430;-73
2023/02/04 10:27:19;;;;;;;12.80;3.23;;;;;;;;;;5043897;28;20026;-73
2023/02/04 10:29:54;;;;;;;15.63;4.72;;;;;;;;;;5045462;28;20398;-70
2023/02/04 10:32:24;;;;;;;15.07;3.85;;;;;;;;;;5051038;28;20039;-77
2023/02/04 10:34:50;;;;;;;;;;;;;;;;;;5050522;28;20067;-76
2023/02/04 10:37:19;;;;;;;10.70;2.83;;;;;;;;;;5048495;28;19955;-75
2023/02/04 10:39:44;;;;;;;8.43;2.97;;;;;;;;;;5049404;28;20028;-74
2023/02/04 10:42:19;;;;;;;16.23;4.75;;;;;;;;;;5047140;28;20033;-74
2023/02/04 10:44:47;;;;;;;11.25;3.47;;;;;;;;;;5044358;28;20021;-73
2023/02/04 10:47:20;;;;;;;7.78;2.88;;;;;;;;;;5024569;28;20021;-75
2023/02/04 10:49:54;;;;;;;11.90;3.33;;;;;;;;;;5025597;28;20120;-75
2023/02/04 10:52:20;;;;;;;9.30;2.63;;;;;;;;;;5027813;28;20023;-74
2023/02/04 10:54:46;;;;;;;11.55;2.83;;;;;;;;;;5027806;28;20036;-74
2023/02/04 10:57:17;;;;;;;16.30;4.00;;;;;;;;;;5028449;28;20201;-74
2023/02/04 10:59:43;;;;;;;9.10;3.30;;;;;;;;;;5048260;28;20430;-77
2023/02/04 11:02:23;;;;;;;16.35;4.15;;;;;;;;;;5047695;28;20028;-74
2023/02/04 11:04:49;;;;;;;11.35;3.95;;;;;;;;;;5055472;28;20035;-75
2023/02/04 11:07:14;;;;;;;13.27;3.67;;;;;;;;;;5049776;28;20032;-74
2023/02/04 11:09:42;;;;;;;14.30;3.63;;;;;;;;;;5048186;28;20029;-74
2023/02/04 11:12:19;;;;;;;15.20;3.45;;;;;;;;;;5047402;28;20272;-78
2023/02/04 11:14:53;;;;;;;12.00;4.00;;;;;;;;;;5030427;28;20039;-77
2023/02/04 11:17:19;;;;;;;13.50;2.55;;;;;;;;;;5052071;28;20017;-76
2023/02/04 11:19:44;;;;;;;21.27;3.05;;;;;;;;;;5052392;28;20115;-74
2023/02/04 11:22:21;;;;;;;13.35;3.35;;;;;;;;;;5035246;28;20091;-79
2023/02/04 11:24:46;;;;;;;13.75;3.03;;;;;;;;;;5034288;28;20040;-76
2023/02/04 11:27:25;;;;;;;13.70;2.75;;;;;;;;;;5051596;28;20021;-77
2023/02/04 11:29:51;;;;;;;9.30;3.17;;;;;;;;;;5039977;28;20047;-73
2023/02/04 11:32:34;;;;;;;12.82;3.00;;;;;;;;;;5052800;28;20093;-73
2023/02/04 11:35:11;;;;;;;9.60;3.05;;;;;;;;;;5052302;28;20082;-73
2023/02/04 11:37:38;;;;;;;15.25;3.72;;;;;;;;;;5060352;28;20024;-73
2023/02/04 11:40:18;;;;;;;15.85;3.22;;;;;;;;;;5052463;28;20028;-74
2023/02/04 11:42:43;;;;;;;11.77;3.40;;;;;;;;;;5032799;28;20063;-75
2023/02/04 11:45:12;;;;;;;10.67;3.30;;;;;;;;;;5052251;28;20060;-72
2023/02/04 11:47:38;;;;;;;15.20;3.63;;;;;;;;;;5034022;28;20272;-74
2023/02/04 11:50:10;;;;;;;13.90;4.07;;;;;;;;;;5034232;28;20491;-75
2023/02/04 11:52:35;;;;;;;12.77;3.60;;;;;;;;;;5052385;28;20110;-75
2023/02/04 11:55:01;;;;;;;11.40;3.75;;;;;;;;;;5032765;28;20064;-75
2023/02/04 11:57:26;;;;;;;18.52;4.15;;;;;;;;;;5032886;28;20483;-75
2023/02/04 11:59:52;;;;;;;15.33;3.27;;;;;;;;;;5054125;28;20111;-74
2023/02/04 12:02:20;;;;;;;11.80;3.95;;;;;;;;;;5053851;28;20303;-75
2023/02/04 12:04:56;;;;;;;12.48;3.78;;;;;;;;;;5033883;28;20029;-71
2023/02/04 12:07:28;;;;;;;11.95;3.00;;;;;;;;;;5051617;28;20021;-72
2023/02/04 12:09:54;;;;;;;11.73;2.58;;;;;;;;;;5059496;28;20028;-71
2023/02/04 12:12:29;;;;;;;14.20;4.40;;;;;;;;;;5050883;28;20023;-72
2023/02/04 12:15:12;;;;;;;16.30;3.50;;;;;;;;;;5033907;28;20052;-71
2023/02/04 12:17:37;;;;;;;15.40;2.90;;;;;;;;;;5051745;28;20025;-72
2023/02/04 12:20:02;;;;;;;18.20;3.33;;;;;;;;;;5036991;28;20032;-74
2023/02/04 12:22:28;;;;;;;11.25;3.10;;;;;;;;;;5051826;28;20271;-73
2023/02/04 12:24:53;;;;;;;12.40;2.90;;;;;;;;;;5051850;28;20452;-74
2023/02/04 12:27:18;;;;;;;12.80;3.93;;;;;;;;;;5049365;28;20337;-73
2023/02/04 12:29:43;;;;;;;10.63;3.67;;;;;;;;;;5033370;28;20646;-72
2023/02/04 12:32:08;;;;;;;17.00;3.88;;;;;;;;;;5051978;28;20052;-73
2023/02/04 12:34:34;;;;;;;13.43;3.20;;;;;;;;;;5051460;28;20143;-72
2023/02/04 12:36:59;;;;;;;11.80;2.67;;;;;;;;;;5050209;28;20626;-73
2023/02/04 12:39:24;;;;;;;12.98;3.75;;;;;;;;;;5052527;28;20971;-76
2023/02/04 12:41:49;;;;;;;9.45;3.40;;;;;;;;;;5057080;28;20021;-75
2023/02/04 12:44:16;;;;;;;9.27;2.85;;;;;;;;;;5032426;28;20132;-74
2023/02/04 12:46:41;;;;;;;8.07;1.88;;;;;;;;;;5048474;28;20025;-74
2023/02/04 12:49:06;;;;;;;11.05;2.67;;;;;;;;;;5041833;28;20022;-73
2023/02/04 12:51:32;;;;;;;8.80;2.70;;;;;;;;;;5026787;28;20064;-74
2023/02/04 12:53:57;;;;;;;12.27;3.10;;;;;;;;;;5049463;28;20843;-74
2023/02/04 12:56:23;;;;;;;4.93;1.97;;;;;;;;;;5050449;28;20017;-74
2023/02/04 12:58:48;;;;;;;7.22;2.10;;;;;;;;;;5048828;28;20284;-73
2023/02/04 13:01:13;;;;;;;5.03;2.30;;;;;;;;;;5050909;28;20017;-78
2023/02/04 13:03:38;;;;;;;14.27;3.13;;;;;;;;;;5049530;28;20271;-78
2023/02/04 13:06:04;;;;;;;10.33;3.07;;;;;;;;;;5048672;28;20630;-78
2023/02/04 13:08:29;;;;;;;8.20;2.22;;;;;;;;;;5051006;28;20729;-79
2023/02/04 13:10:54;;;;;;;8.10;1.97;;;;;;;;;;5050241;28;20027;-79
2023/02/04 13:13:20;;;;;;;10.60;3.03;;;;;;;;;;5041019;28;20314;-81
2023/02/04 13:15:46;;;;;;;7.65;2.22;;;;;;;;;;5049851;28;20318;-78
2023/02/04 13:18:11;;;;;;;10.07;2.45;;;;;;;;;;5050581;28;20353;-72
2023/02/04 13:20:37;;;;;;;13.80;2.88;;;;;;;;;;5051469;28;20035;-77
2023/02/04 13:23:02;;;;;;;11.95;2.95;;;;;;;;;;5033141;28;20087;-78
2023/02/04 13:25:27;;;;;;;14.93;3.17;;;;;;;;;;5051036;28;20067;-78
2023/02/04 13:27:53;;;;;;;8.57;2.80;;;;;;;;;;5030240;28;20744;-77
2023/02/04 13:30:18;;;;;;;10.32;3.28;;;;;;;;;;5049750;28;20746;-78
2023/02/04 13:32:43;;;;;;;12.88;3.47;;;;;;;;;;5052446;28;20020;-78
2023/02/04 13:35:08;;;;;;;18.98;5.45;;;;;;;;;;5051621;28;20029;-74
2023/02/04 13:37:34;;;;;;;13.40;3.95;;;;;;;;;;5030707;28;20025;-75
2023/02/04 13:39:59;;;;;;;11.25;3.33;;;;;;;;;;5032205;28;20029;-74
2023/02/04 13:42:24;;;;;;;10.65;2.90;;;;;;;;;;5032177;28;20024;-74
2023/02/04 13:44:49;;;;;;;17.30;4.13;;;;;;;;;;5039816;28;20315;-75
2023/02/04 13:47:15;;;;;;;16.30;5.43;;;;;;;;;;5033143;28;20112;-77
2023/02/04 13:49:40;;;;;;;16.87;3.47;;;;;;;;;;5030906;28;20287;-75
2023/02/04 13:52:05;;;;;;;16.03;3.53;;;;;;;;;;5049719;28;20329;-75
2023/02/04 13:54:33;;;;;;;13.05;2.85;;;;;;;;;;5051450;28;20331;-78
2023/02/04 13:56:58;;;;;;;18.08;3.70;;;;;;;;;;5026963;28;20048;-74
2023/02/04 13:59:23;;;;;;;12.35;3.72;;;;;;;;;;5030391;28;20467;-75
2023/02/04 14:01:48;;;;;;;11.45;3.42;;;;;;;;;;5049285;28;20043;-74
2023/02/04 14:04:14;;;;;;;14.33;3.73;;;;;;;;;;5030205;28;20028;-75
2023/02/04 14:06:42;;;;;;;13.07;3.38;;;;;;;;;;5029402;28;20272;-75
2023/02/04 14:09:08;;;;;;;9.20;3.88;;;;;;;;;;5048162;28;20020;-76
2023/02/04 14:11:33;;;;;;;16.13;3.38;;;;;;;;;;5046712;28;20044;-73
2023/02/04 14:13:58;;;;;;;9.90;3.00;;;;;;;;;;5048492;28;20025;-73
2023/02/04 14:16:23;;;;;;;10.47;2.77;;;;;;;;;;5037546;28;20267;-73
2023/02/04 14:18:49;;;;;;;13.95;3.08;;;;;;;;;;5033638;28;20276;-72
2023/02/04 14:21:14;;;;;;;14.00;3.20;;;;;;;;;;5028579;28;20021;-77
2023/02/04 14:23:40;;;;;;;15.93;3.60;;;;;;;;;;5048213;28;20036;-74
2023/02/04 14:26:05;;;;;;;11.25;4.18;;;;;;;;;;5029956;28;20017;-75
2023/02/04 14:28:30;;;;;;;12.73;3.03;;;;;;;;;;5045642;28;20430;-75